Time;durP1;ratioP1;P1;durP2;ratioP2;P2;SDS_P1;SDS_P2;PMS_P1;PMS_P2;Temp;Humidity;BMP_temperature;BMP_pressure;BME280_temperature;BME280_humidity;BME280_pressure;Samples;Min_cycle;Max_cycle;Signal;HPM_P1;HPM_P2
2022/08/08 00:00:02;;;;;;;1.50;1.30;;;16.10;94.80;;;;;;5038063;28;20476;-95
2022/08/08 00:02:38;;;;;;;1.50;1.40;;;16.10;94.90;;;;;;5038329;28;20954;-94
2022/08/08 00:05:12;;;;;;;1.50;1.37;;;16.10;95.00;;;;;;5035581;28;20514;-94
2022/08/08 00:07:47;;;;;;;1.30;1.20;;;16.10;94.80;;;;;;5035248;28;20485;-93
2022/08/08 00:10:20;;;;;;;1.40;1.23;;;16.00;94.90;;;;;;5035497;28;20464;-93
2022/08/08 00:12:54;;;;;;;1.47;1.37;;;16.00;94.90;;;;;;5035170;28;20487;-94
2022/08/08 00:15:28;;;;;;;2.30;1.60;;;16.00;94.90;;;;;;5034881;28;20476;-94
2022/08/08 00:17:59;;;;;;;1.60;1.40;;;16.00;95.10;;;;;;5034739;28;20488;-94
2022/08/08 00:20:34;;;;;;;1.63;1.53;;;16.00;94.90;;;;;;5035298;28;20467;-93
2022/08/08 00:23:05;;;;;;;1.47;1.33;;;15.90;94.90;;;;;;5036406;28;20468;-94
2022/08/08 00:25:38;;;;;;;1.30;1.20;;;15.90;94.90;;;;;;5035601;28;20465;-94
2022/08/08 00:28:09;;;;;;;1.43;1.33;;;15.90;95.00;;;;;;5035980;28;20478;-92
2022/08/08 00:30:42;;;;;;;1.20;1.10;;;15.90;94.80;;;;;;5035730;28;20491;-95
2022/08/08 00:33:15;;;;;;;1.50;1.40;;;15.90;94.90;;;;;;5036288;28;20465;-93
2022/08/08 00:35:49;;;;;;;1.30;1.20;;;15.90;95.00;;;;;;5035780;28;20469;-94
2022/08/08 00:38:26;;;;;;;1.50;1.40;;;15.90;95.20;;;;;;5035891;28;20481;-93
2022/08/08 00:41:23;;;;;;;1.43;1.20;;;15.80;95.20;;;;;;5036079;28;20468;-93
2022/08/08 00:44:11;;;;;;;2.30;1.30;;;15.80;95.40;;;;;;5035963;28;20467;-93
2022/08/08 00:47:13;;;;;;;1.40;1.30;;;15.80;95.50;;;;;;5035568;28;20469;-93
2022/08/08 00:50:11;;;;;;;1.50;1.20;;;15.70;95.50;;;;;;5030564;28;20485;-94
2022/08/08 00:52:46;;;;;;;1.53;1.30;;;15.70;95.60;;;;;;5036337;28;20475;-94
2022/08/08 00:55:55;;;;;;;1.30;1.20;;;15.70;95.70;;;;;;5035303;28;20471;-93
2022/08/08 00:58:50;;;;;;;1.10;1.00;;;15.60;95.90;;;;;;5035096;28;20485;-94
2022/08/08 01:01:26;;;;;;;1.63;1.13;;;15.60;95.70;;;;;;5035439;28;20476;-93
2022/08/08 01:04:18;;;;;;;1.40;1.30;;;15.50;95.40;;;;;;5034910;28;20969;-93
2022/08/08 01:07:22;;;;;;;1.47;1.20;;;15.60;95.30;;;;;;5034724;28;20472;-92
2022/08/08 01:10:43;;;;;;;1.90;1.47;;;15.50;95.70;;;;;;5035292;28;20460;-93
2022/08/08 01:13:47;;;;;;;1.20;1.10;;;15.40;95.80;;;;;;5035365;28;20467;-94
2022/08/08 01:16:50;;;;;;;1.40;1.30;;;15.40;95.90;;;;;;5035353;28;20483;-94
2022/08/08 01:20:03;;;;;;;2.17;1.33;;;15.40;96.00;;;;;;5013326;28;20978;-94
2022/08/08 01:23:11;;;;;;;1.40;1.30;;;15.40;95.90;;;;;;5035295;28;20456;-94
2022/08/08 01:26:25;;;;;;;1.57;1.30;;;15.20;96.20;;;;;;5034189;28;20462;-93
2022/08/08 01:29:22;;;;;;;1.10;1.00;;;15.20;96.20;;;;;;5034967;28;21023;-93
2022/08/08 01:32:51;;;;;;;1.20;1.10;;;15.20;96.30;;;;;;5029646;28;20471;-93
2022/08/08 01:35:57;;;;;;;1.40;1.30;;;15.20;96.40;;;;;;5014363;28;20467;-93
2022/08/08 01:38:55;;;;;;;2.37;1.17;;;15.20;96.40;;;;;;5035192;28;20496;-93
2022/08/08 01:41:34;;;;;;;2.20;1.50;;;15.20;96.40;;;;;;5035641;28;20476;-93
2022/08/08 01:44:20;;;;;;;1.43;1.30;;;15.20;96.20;;;;;;5035570;28;20473;-93
2022/08/08 01:46:57;;;;;;;1.20;1.07;;;15.10;95.70;;;;;;5035581;28;20552;-93
2022/08/08 01:49:43;;;;;;;1.67;1.57;;;15.10;96.00;;;;;;5035802;28;20480;-94
2022/08/08 01:52:24;;;;;;;1.37;1.27;;;15.10;96.00;;;;;;5035959;28;20461;-94
2022/08/08 01:55:04;;;;;;;1.40;1.30;;;15.10;96.30;;;;;;5035496;28;20467;-93
2022/08/08 01:57:38;;;;;;;1.40;1.30;;;15.10;96.30;;;;;;5035439;28;20484;-93
2022/08/08 02:00:16;;;;;;;1.40;1.30;;;15.00;96.40;;;;;;5035138;28;20456;-94
2022/08/08 02:03:05;;;;;;;2.23;1.70;;;15.00;96.40;;;;;;5036424;28;20840;-93
2022/08/08 02:05:39;;;;;;;1.20;1.10;;;15.00;96.40;;;;;;5036144;28;20472;-93
2022/08/08 02:08:14;;;;;;;2.40;1.10;;;14.90;96.10;;;;;;5035165;28;20480;-93
2022/08/08 02:10:59;;;;;;;1.50;1.33;;;14.90;96.40;;;;;;5036019;28;20542;-94
2022/08/08 02:13:31;;;;;;;1.10;0.97;;;14.80;96.50;;;;;;5037941;28;20460;-93
2022/08/08 02:16:07;;;;;;;1.80;1.40;;;14.80;96.50;;;;;;5036655;28;20938;-94
2022/08/08 02:18:40;;;;;;;1.40;1.27;;;14.80;96.40;;;;;;5042572;28;20551;-94
2022/08/08 02:24:14;;;;;;;1.97;1.20;;;14.70;96.30;;;;;;5052822;28;20432;-94
2022/08/08 02:26:50;;;;;;;1.30;1.20;;;14.70;96.50;;;;;;5052826;28;20548;-94
2022/08/08 02:29:37;;;;;;;1.83;1.50;;;14.60;96.60;;;;;;5049403;28;20453;-94
2022/08/08 02:32:15;;;;;;;1.20;1.10;;;14.60;96.60;;;;;;5022020;28;20484;-94
2022/08/08 02:35:06;;;;;;;2.43;1.70;;;14.60;96.60;;;;;;5040123;28;20471;-93
2022/08/08 02:37:45;;;;;;;1.70;1.50;;;14.60;96.80;;;;;;5041745;28;20488;-94
2022/08/08 02:40:19;;;;;;;1.77;1.30;;;14.50;96.80;;;;;;5043307;28;20960;-94
2022/08/08 02:43:21;;;;;;;1.50;1.17;;;14.50;96.70;;;;;;5043577;28;20457;-95
2022/08/08 02:46:38;;;;;;;1.37;1.27;;;14.40;96.50;;;;;;5043538;28;20461;-94
2022/08/08 02:49:33;;;;;;;1.20;1.10;;;14.50;96.50;;;;;;5042525;28;20508;-94
2022/08/08 02:52:18;;;;;;;2.20;1.40;;;14.50;96.50;;;;;;5043680;28;20473;-94
2022/08/08 02:55:06;;;;;;;1.30;1.20;;;14.40;96.90;;;;;;5042557;28;20500;-94
2022/08/08 02:58:04;;;;;;;1.63;1.30;;;14.40;96.90;;;;;;5042853;28;20531;-95
2022/08/08 03:00:59;;;;;;;1.87;1.40;;;14.30;96.90;;;;;;5060080;28;20437;-96
2022/08/08 03:03:58;;;;;;;1.30;1.20;;;14.30;97.00;;;;;;5043245;28;20571;-94
2022/08/08 03:07:01;;;;;;;1.30;1.20;;;14.30;97.10;;;;;;5009348;28;20555;-94
2022/08/08 03:10:17;;;;;;;1.33;1.20;;;14.20;97.10;;;;;;5041734;28;20456;-94
2022/08/08 03:13:25;;;;;;;1.43;1.33;;;14.20;97.10;;;;;;5038080;28;20471;-94
2022/08/08 03:16:23;;;;;;;2.00;1.80;;;14.20;97.40;;;;;;5024628;28;20467;-95
2022/08/08 03:19:02;;;;;;;1.67;1.57;;;14.10;97.50;;;;;;5039325;28;20480;-94
2022/08/08 03:21:31;;;;;;;1.40;1.30;;;14.10;97.60;;;;;;5038551;28;20463;-94
2022/08/08 03:24:00;;;;;;;1.67;1.40;;;14.10;97.60;;;;;;5039365;28;20563;-95
2022/08/08 03:26:31;;;;;;;1.63;1.50;;;14.10;97.60;;;;;;5041411;28;21044;-93
2022/08/08 03:29:02;;;;;;;1.40;1.30;;;14.00;97.90;;;;;;5038544;28;20485;-94
2022/08/08 03:34:16;;;;;;;1.10;1.00;;;14.00;98.20;;;;;;5035517;28;20969;-93
2022/08/08 03:36:44;;;;;;;1.50;1.40;;;14.00;98.20;;;;;;5038507;28;20469;-94
2022/08/08 03:39:14;;;;;;;2.70;1.50;;;14.00;98.10;;;;;;5034857;28;20489;-94
2022/08/08 03:41:41;;;;;;;3.80;1.53;;;14.00;97.90;;;;;;5035372;28;20465;-94
2022/08/08 03:44:08;;;;;;;1.77;1.50;;;13.90;97.90;;;;;;5036264;28;20465;-94
2022/08/08 03:46:46;;;;;;;1.90;1.67;;;13.90;98.00;;;;;;5036095;28;20468;-94
2022/08/08 03:49:18;;;;;;;1.63;1.43;;;13.90;98.00;;;;;;5037083;28;20491;-94
2022/08/08 03:51:46;;;;;;;2.27;1.70;;;13.90;97.90;;;;;;5037835;28;20467;-94
2022/08/08 03:54:15;;;;;;;1.73;1.63;;;13.90;97.90;;;;;;5037727;28;20472;-93
2022/08/08 03:56:44;;;;;;;1.67;1.57;;;13.90;97.90;;;;;;5037832;28;20639;-94
2022/08/08 03:59:11;;;;;;;2.23;1.47;;;13.90;98.00;;;;;;5037181;28;20489;-94
2022/08/08 04:07:27;;;;;;;2.00;1.80;;;13.80;98.10;;;;;;4985292;28;20464;-94
2022/08/08 04:13:14;;;;;;;2.33;1.90;;;13.70;98.60;;;;;;4970016;28;20445;-96
2022/08/08 04:15:41;;;;;;;2.00;1.67;;;13.60;98.80;;;;;;5034280;28;20461;-93
2022/08/08 04:18:08;;;;;;;1.50;1.40;;;13.60;98.80;;;;;;5034588;28;20495;-93
2022/08/08 04:20:35;;;;;;;2.00;1.67;;;13.60;98.80;;;;;;5036161;28;20461;-94
2022/08/08 04:23:02;;;;;;;1.77;1.63;;;13.60;98.80;;;;;;5035801;28;20479;-94
2022/08/08 04:25:29;;;;;;;1.50;1.40;;;13.60;98.80;;;;;;5035489;28;20469;-94
2022/08/08 04:27:56;;;;;;;1.77;1.67;;;13.60;99.00;;;;;;5035067;28;20488;-94
2022/08/08 04:30:24;;;;;;;1.70;1.50;;;13.60;99.10;;;;;;5035468;28;20465;-94
2022/08/08 04:32:51;;;;;;;1.63;1.47;;;13.60;99.10;;;;;;5034970;28;20461;-94
2022/08/08 04:35:19;;;;;;;1.50;1.40;;;13.60;99.20;;;;;;5035432;28;20465;-94
2022/08/08 04:37:45;;;;;;;2.67;1.50;;;13.60;99.30;;;;;;5035379;28;20485;-94
2022/08/08 04:40:13;;;;;;;1.40;1.30;;;13.50;99.30;;;;;;5036017;28;20465;-94
2022/08/08 04:42:40;;;;;;;1.60;1.43;;;13.50;99.30;;;;;;5035357;28;20556;-94
2022/08/08 04:45:08;;;;;;;1.50;1.17;;;13.50;99.20;;;;;;5049962;28;20508;-94
2022/08/08 04:50:20;;;;;;;1.90;1.60;;;13.60;99.50;;;;;;3161011;26;20493;-91
2022/08/08 04:52:46;;;;;;;1.93;1.83;;;13.60;99.60;;;;;;5014019;28;20927;-92
2022/08/08 04:55:13;;;;;;;1.40;1.30;;;13.60;99.80;;;;;;5014523;28;20469;-92
2022/08/08 04:57:40;;;;;;;1.93;1.47;;;13.60;99.90;;;;;;5014210;28;20454;-91
2022/08/08 05:00:08;;;;;;;2.80;1.40;;;13.60;99.90;;;;;;5014559;28;20512;-91
2022/08/08 05:02:35;;;;;;;2.60;1.73;;;13.60;99.90;;;;;;5014212;28;20470;-92
2022/08/08 05:05:02;;;;;;;2.20;1.47;;;13.70;99.90;;;;;;5014708;28;20480;-91
2022/08/08 05:07:30;;;;;;;1.73;1.63;;;13.70;99.90;;;;;;5014265;28;20568;-90
2022/08/08 05:09:57;;;;;;;5.13;1.63;;;13.70;99.90;;;;;;5014255;28;20867;-93
2022/08/08 05:12:24;;;;;;;1.93;1.30;;;13.80;99.90;;;;;;5014379;28;20466;-92
2022/08/08 05:14:53;;;;;;;2.17;1.97;;;13.80;99.90;;;;;;5014150;28;20473;-91
2022/08/08 05:17:20;;;;;;;2.13;1.73;;;13.80;99.90;;;;;;5014314;28;20481;-92
2022/08/08 05:19:47;;;;;;;1.80;1.53;;;13.90;99.90;;;;;;5013947;28;20493;-91
2022/08/08 05:22:14;;;;;;;2.20;2.00;;;13.90;99.90;;;;;;5014196;28;20973;-91
2022/08/08 05:24:43;;;;;;;2.07;1.90;;;14.00;99.90;;;;;;5013861;28;20472;-92
2022/08/08 05:27:09;;;;;;;2.47;1.90;;;14.10;99.90;;;;;;5014334;28;20463;-92
2022/08/08 05:29:36;;;;;;;2.07;1.70;;;14.10;99.90;;;;;;5016284;28;21009;-91
2022/08/08 05:32:04;;;;;;;2.17;1.70;;;14.20;99.90;;;;;;5015231;28;20465;-91
2022/08/08 05:34:35;;;;;;;1.53;1.43;;;14.20;99.90;;;;;;5015340;28;20526;-92
2022/08/08 05:37:04;;;;;;;2.00;1.70;;;14.40;99.90;;;;;;5017492;28;20469;-92
2022/08/08 05:39:31;;;;;;;2.10;1.90;;;14.40;99.90;;;;;;5016465;28;20463;-92
2022/08/08 05:42:00;;;;;;;3.87;2.20;;;14.50;99.90;;;;;;5015125;28;20203;-91
2022/08/08 05:44:30;;;;;;;2.40;1.73;;;14.60;99.90;;;;;;5013376;28;20469;-92
2022/08/08 05:47:01;;;;;;;2.30;2.10;;;14.60;99.90;;;;;;5013601;28;20466;-91
2022/08/08 05:49:30;;;;;;;1.80;1.70;;;14.70;99.90;;;;;;5013120;28;20856;-91
2022/08/08 05:52:02;;;;;;;1.63;1.53;;;14.80;99.90;;;;;;5013160;28;20550;-91
2022/08/08 05:54:41;;;;;;;2.33;2.13;;;15.00;99.90;;;;;;5012734;28;21021;-91
2022/08/08 05:57:15;;;;;;;1.87;1.50;;;15.10;99.90;;;;;;5011748;28;20553;-91
2022/08/08 05:59:46;;;;;;;2.23;2.03;;;15.20;99.90;;;;;;5012304;28;20486;-91
2022/08/08 06:05:05;;;;;;;2.27;1.43;;;15.50;99.90;;;;;;5012351;28;20449;-91
2022/08/08 06:07:38;;;;;;;2.17;1.97;;;15.60;99.90;;;;;;5013142;28;20466;-92
2022/08/08 06:10:08;;;;;;;2.33;2.13;;;15.80;99.90;;;;;;5013301;28;20462;-91
2022/08/08 06:12:36;;;;;;;2.27;1.90;;;16.00;99.90;;;;;;5014139;28;20457;-91
2022/08/08 06:15:06;;;;;;;2.10;1.90;;;16.10;99.90;;;;;;5015965;28;20555;-91
2022/08/08 06:17:34;;;;;;;2.10;2.00;;;16.20;99.90;;;;;;5016652;28;20458;-91
2022/08/08 06:20:03;;;;;;;2.27;2.07;;;16.30;99.90;;;;;;5016135;28;20528;-91
2022/08/08 06:22:30;;;;;;;2.47;2.07;;;16.50;99.90;;;;;;5016740;28;20951;-91
2022/08/08 06:24:57;;;;;;;2.07;1.97;;;16.60;99.90;;;;;;5016906;28;20468;-92
2022/08/08 06:27:35;;;;;;;2.13;1.93;;;16.70;99.90;;;;;;5017986;28;20954;-91
2022/08/08 06:30:07;;;;;;;2.20;2.00;;;16.80;99.90;;;;;;5018402;28;20462;-91
2022/08/08 06:32:42;;;;;;;3.20;2.27;;;16.90;99.90;;;;;;5018696;28;20466;-91
2022/08/08 06:35:12;;;;;;;3.57;2.40;;;16.90;99.90;;;;;;5016622;28;20527;-90
2022/08/08 06:38:12;;;;;;;2.20;2.00;;;17.10;99.90;;;;;;5016414;28;20458;-90
2022/08/08 06:43:36;;;;;;;2.20;2.00;;;17.40;99.90;;;;;;4992112;28;20894;-90
2022/08/08 06:46:08;;;;;;;2.80;1.80;;;17.50;99.90;;;;;;5018635;28;20462;-90
2022/08/08 06:48:35;;;;;;;2.27;1.80;;;17.60;99.90;;;;;;5018988;28;20485;-90
2022/08/08 06:51:03;;;;;;;3.80;2.43;;;17.80;99.90;;;;;;5019879;28;20473;-89
2022/08/08 06:53:32;;;;;;;1.87;1.73;;;17.90;99.90;;;;;;5020397;28;20523;-91
2022/08/08 06:55:59;;;;;;;1.90;1.80;;;17.90;99.90;;;;;;5018400;28;20465;-90
2022/08/08 06:58:26;;;;;;;2.53;2.27;;;18.10;99.80;;;;;;5015349;28;20918;-90
2022/08/08 07:00:53;;;;;;;1.83;1.73;;;18.20;99.70;;;;;;5018010;28;20457;-90
2022/08/08 07:03:32;;;;;;;2.43;2.00;;;18.30;99.90;;;;;;5017990;28;20458;-91
2022/08/08 07:06:04;;;;;;;2.87;2.17;;;18.40;99.90;;;;;;5018014;28;20465;-91
2022/08/08 07:08:47;;;;;;;2.20;2.10;;;18.50;99.50;;;;;;5017665;28;20485;-90
2022/08/08 07:11:19;;;;;;;3.10;2.20;;;18.60;99.90;;;;;;5017147;28;20877;-89
2022/08/08 07:13:49;;;;;;;2.80;2.40;;;18.80;99.60;;;;;;5016854;28;20464;-90
2022/08/08 07:16:27;;;;;;;2.27;2.07;;;19.00;99.60;;;;;;5017449;28;20457;-90
2022/08/08 07:19:07;;;;;;;1.70;1.60;;;19.10;99.80;;;;;;5017687;28;20485;-90
2022/08/08 07:21:42;;;;;;;2.07;1.87;;;19.20;99.90;;;;;;5024530;28;20454;-91
2022/08/08 07:24:15;;;;;;;2.60;2.40;;;19.30;99.70;;;;;;5036096;28;20513;-90
2022/08/08 07:26:49;;;;;;;3.00;2.63;;;19.40;99.60;;;;;;5016966;28;20477;-90
2022/08/08 07:29:17;;;;;;;2.33;2.13;;;19.50;99.40;;;;;;5016766;28;20482;-89
2022/08/08 07:31:45;;;;;;;2.00;1.87;;;19.60;99.20;;;;;;5017017;28;20540;-90
2022/08/08 07:34:18;;;;;;;2.90;2.40;;;19.60;99.20;;;;;;5016267;28;20475;-90
2022/08/08 07:36:48;;;;;;;4.30;2.37;;;19.70;99.30;;;;;;5016831;28;20569;-90
2022/08/08 07:39:17;;;;;;;2.43;2.20;;;19.80;98.90;;;;;;5016935;28;20547;-89
2022/08/08 07:41:47;;;;;;;2.80;2.37;;;19.90;98.60;;;;;;5017669;28;20466;-89
2022/08/08 07:44:16;;;;;;;2.47;2.33;;;20.00;98.60;;;;;;5015525;28;20596;-88
2022/08/08 07:46:52;;;;;;;2.97;2.70;;;20.10;98.80;;;;;;5016815;28;20466;-90
2022/08/08 07:49:20;;;;;;;2.60;2.40;;;20.20;98.80;;;;;;5016592;28;20497;-90
2022/08/08 07:51:51;;;;;;;2.77;2.57;;;20.30;99.00;;;;;;5016808;28;20951;-89
2022/08/08 07:54:29;;;;;;;2.37;2.17;;;20.40;99.40;;;;;;5017032;28;20810;-90
2022/08/08 07:57:03;;;;;;;2.63;2.43;;;20.50;99.80;;;;;;5016324;28;20466;-92
2022/08/08 07:59:47;;;;;;;2.30;2.10;;;20.70;99.60;;;;;;5015837;28;20485;-90
2022/08/08 08:02:21;;;;;;;2.20;2.00;;;20.80;99.00;;;;;;5016012;28;20468;-90
2022/08/08 08:04:51;;;;;;;3.70;2.90;;;20.90;98.70;;;;;;5015786;28;20467;-90
2022/08/08 08:07:36;;;;;;;;;;;;;;;;;;;;;
2022/08/08 08:10:38;;;;;;;17.27;7.00;;;21.20;99.20;;;;;;5014677;28;20897;-90
2022/08/08 08:13:24;;;;;;;6.63;4.30;;;21.40;98.90;;;;;;5013946;28;20469;-90
2022/08/08 08:15:59;;;;;;;2.90;2.40;;;21.50;98.70;;;;;;5020949;28;20489;-93
2022/08/08 08:18:34;;;;;;;2.70;2.50;;;21.60;98.70;;;;;;5018305;28;20485;-90
2022/08/08 08:21:03;;;;;;;3.07;2.67;;;21.70;97.80;;;;;;5016842;28;20489;-90
2022/08/08 08:23:34;;;;;;;3.67;2.40;;;21.80;98.10;;;;;;5015819;28;20522;-90
2022/08/08 08:26:01;;;;;;;2.43;2.10;;;21.90;97.70;;;;;;5015711;28;20477;-90
2022/08/08 08:28:30;;;;;;;3.17;2.23;;;21.90;96.60;;;;;;5015522;28;20482;-90
2022/08/08 08:31:03;;;;;;;2.60;2.23;;;22.00;97.10;;;;;;5016496;28;20562;-90
2022/08/08 08:33:33;;;;;;;2.83;2.63;;;22.20;98.30;;;;;;5015717;28;20897;-90
2022/08/08 08:36:01;;;;;;;3.13;2.60;;;22.30;97.80;;;;;;5015632;28;21006;-90
2022/08/08 08:38:29;;;;;;;4.37;2.63;;;22.50;97.80;;;;;;5015684;28;20495;-91
2022/08/08 08:40:56;;;;;;;2.20;2.00;;;22.60;96.90;;;;;;5015543;28;21010;-91
2022/08/08 08:43:27;;;;;;;3.30;2.57;;;22.70;97.30;;;;;;5013596;28;20466;-90
2022/08/08 08:45:59;;;;;;;2.60;2.40;;;22.90;97.50;;;;;;5014364;28;20468;-91
2022/08/08 08:48:26;;;;;;;2.93;2.63;;;22.90;95.20;;;;;;5014304;28;20900;-90
2022/08/08 08:50:55;;;;;;;2.20;2.00;;;23.00;95.30;;;;;;5012325;28;20490;-90
2022/08/08 08:53:23;;;;;;;2.50;2.30;;;23.00;95.70;;;;;;5013070;28;20467;-90
2022/08/08 08:55:51;;;;;;;2.67;2.47;;;23.00;95.40;;;;;;5013291;28;20479;-89
2022/08/08 08:58:26;;;;;;;2.63;2.43;;;23.00;95.80;;;;;;5014363;28;20492;-90
2022/08/08 09:00:54;;;;;;;2.40;2.20;;;23.10;95.80;;;;;;5014540;28;20518;-90
2022/08/08 09:03:23;;;;;;;2.80;2.60;;;23.20;95.50;;;;;;5011345;28;20840;-90
2022/08/08 09:05:50;;;;;;;2.30;2.10;;;23.40;96.20;;;;;;5014879;28;20465;-89
2022/08/08 09:08:20;;;;;;;2.63;2.43;;;23.50;96.30;;;;;;5013978;28;20492;-89
2022/08/08 09:10:49;;;;;;;2.77;2.57;;;23.60;94.90;;;;;;5015086;28;20467;-90
2022/08/08 09:13:17;;;;;;;5.30;2.20;;;23.70;95.90;;;;;;5014396;28;20950;-90
2022/08/08 09:15:44;;;;;;;2.13;1.93;;;23.90;96.90;;;;;;5013797;28;20907;-90
2022/08/08 09:18:11;;;;;;;2.70;2.03;;;24.00;95.50;;;;;;5012791;28;20487;-89
2022/08/08 09:20:38;;;;;;;1.87;1.77;;;24.20;95.90;;;;;;5010220;28;20523;-90
2022/08/08 09:23:05;;;;;;;2.40;2.03;;;24.40;96.10;;;;;;5013939;28;20468;-89
2022/08/08 09:29:03;;;;;;;2.43;2.23;;;24.50;94.10;;;;;;5005477;28;20471;-89
2022/08/08 09:31:47;;;;;;;2.10;1.90;;;24.50;94.60;;;;;;5011742;28;20468;-91
2022/08/08 09:34:19;;;;;;;2.40;2.03;;;24.70;94.10;;;;;;5011491;28;20997;-90
2022/08/08 09:36:47;;;;;;;2.73;2.07;;;24.80;94.00;;;;;;5012898;28;20460;-91
2022/08/08 09:39:20;;;;;;;2.50;2.30;;;24.90;94.50;;;;;;5011950;28;20524;-90
2022/08/08 09:41:59;;;;;;;2.00;1.90;;;25.10;94.70;;;;;;5011799;28;20475;-90
2022/08/08 09:44:55;;;;;;;2.23;2.03;;;25.30;93.10;;;;;;5011750;28;20492;-90
2022/08/08 09:47:24;;;;;;;2.63;2.00;;;25.40;92.50;;;;;;4991782;28;20461;-90
2022/08/08 09:49:52;;;;;;;2.07;1.63;;;25.40;93.10;;;;;;4992051;28;20498;-90
2022/08/08 09:52:23;;;;;;;2.63;1.97;;;25.50;93.20;;;;;;4992628;28;20580;-89
2022/08/08 09:54:50;;;;;;;2.63;2.43;;;25.60;92.80;;;;;;4992305;28;20465;-92
2022/08/08 09:57:24;;;;;;;3.20;1.93;;;25.70;92.50;;;;;;4996079;28;20491;-91
2022/08/08 09:59:59;;;;;;;1.93;1.73;;;25.70;91.20;;;;;;4995043;28;20493;-91
2022/08/08 10:02:35;;;;;;;3.07;2.30;;;25.80;91.50;;;;;;4997157;28;20461;-91
2022/08/08 10:05:11;;;;;;;2.00;1.70;;;26.00;93.30;;;;;;5006330;28;20553;-90
2022/08/08 10:07:44;;;;;;;2.67;2.40;;;26.10;91.70;;;;;;5005221;28;20457;-90
2022/08/08 10:10:23;;;;;;;;;;;;;;;;;;;;;
2022/08/08 10:13:45;;;;;;;1.90;1.80;;;26.20;92.00;;;;;;5010898;28;20458;-91
2022/08/08 10:16:16;;;;;;;2.00;1.90;;;26.30;91.90;;;;;;5000610;28;20461;-91
2022/08/08 10:18:43;;;;;;;5.67;2.17;;;26.40;92.10;;;;;;5024987;23;20497;-69
2022/08/08 10:21:12;;;;;;;1.90;1.80;;;26.50;91.40;;;;;;5003683;28;20488;-68
2022/08/08 10:23:44;;;;;;;2.23;2.03;;;26.60;90.20;;;;;;5008450;28;20549;-68
2022/08/08 10:26:17;;;;;;;2.90;2.00;;;26.60;90.90;;;;;;5008210;28;20579;-70
2022/08/08 10:28:54;;;;;;;1.80;1.70;;;26.50;90.00;;;;;;5008907;28;20806;-69
2022/08/08 10:34:15;;;;;;;2.00;1.90;;;26.40;87.00;;;;;;5007782;28;20450;-69
2022/08/08 10:36:43;;;;;;;2.43;2.23;;;26.20;88.00;;;;;;5008954;28;21275;-69
2022/08/08 10:39:11;;;;;;;2.53;2.03;;;26.20;89.20;;;;;;5007598;28;20461;-69
2022/08/08 10:41:38;;;;;;;2.07;1.97;;;26.20;89.80;;;;;;5008275;28;21024;-69
2022/08/08 10:44:09;;;;;;;2.10;1.90;;;26.10;89.00;;;;;;5007639;28;20466;-68
2022/08/08 10:46:37;;;;;;;1.80;1.70;;;26.10;90.50;;;;;;5008636;28;20489;-68
2022/08/08 10:49:04;;;;;;;1.90;1.80;;;26.20;89.10;;;;;;5004847;28;20489;-68
2022/08/08 10:51:36;;;;;;;2.03;1.70;;;26.40;89.30;;;;;;5008556;28;20468;-68
2022/08/08 10:54:03;;;;;;;2.23;2.00;;;26.60;90.90;;;;;;5007596;28;20465;-68
2022/08/08 10:56:33;;;;;;;2.30;2.17;;;26.80;91.00;;;;;;5008207;28;20485;-68
2022/08/08 10:59:03;;;;;;;3.43;2.13;;;27.00;90.30;;;;;;5009510;28;20472;-69
2022/08/08 11:01:31;;;;;;;3.37;1.73;;;27.30;91.00;;;;;;5011867;28;21079;-69
2022/08/08 11:04:00;;;;;;;1.90;1.80;;;27.50;88.10;;;;;;5011120;28;20476;-67
2022/08/08 11:06:30;;;;;;;2.53;2.33;;;27.50;86.80;;;;;;5011682;28;20481;-68
2022/08/08 11:09:01;;;;;;;1.87;1.77;;;27.20;87.70;;;;;;5011362;28;20527;-67
2022/08/08 11:11:36;;;;;;;1.77;1.67;;;26.90;88.10;;;;;;5010805;28;20549;-69
2022/08/08 11:14:02;;;;;;;1.87;1.70;;;26.70;89.10;;;;;;5010438;28;20527;-68
2022/08/08 11:16:32;;;;;;;1.67;1.57;;;26.50;86.20;;;;;;5011434;28;20486;-67
2022/08/08 11:19:01;;;;;;;1.93;1.77;;;26.40;89.20;;;;;;5010664;28;20535;-68
2022/08/08 11:21:29;;;;;;;1.70;1.60;;;26.40;89.70;;;;;;5011300;28;20555;-68
2022/08/08 11:23:59;;;;;;;2.10;2.00;;;26.60;91.40;;;;;;5010977;28;20469;-68
2022/08/08 11:26:29;;;;;;;3.37;2.20;;;26.90;91.30;;;;;;5009957;28;20477;-68
2022/08/08 11:29:02;;;;;;;2.27;1.77;;;27.10;90.90;;;;;;5010816;28;20473;-68
2022/08/08 11:31:35;;;;;;;1.50;1.40;;;27.40;91.00;;;;;;5010676;28;20831;-68
2022/08/08 11:34:05;;;;;;;2.20;2.00;;;27.40;85.30;;;;;;5009399;28;20553;-67
2022/08/08 11:36:33;;;;;;;2.27;2.03;;;27.20;87.10;;;;;;5003154;28;20486;-67
2022/08/08 11:38:59;;;;;;;1.90;1.80;;;26.90;87.30;;;;;;5008652;28;20556;-67
2022/08/08 11:41:28;;;;;;;2.70;1.63;;;26.70;88.90;;;;;;5009455;28;20747;-68
2022/08/08 11:43:56;;;;;;;2.10;2.00;;;26.90;86.80;;;;;;5006912;28;20466;-68
2022/08/08 11:46:25;;;;;;;1.83;1.73;;;27.10;88.50;;;;;;5008292;28;20536;-67
2022/08/08 11:48:53;;;;;;;3.10;1.83;;;27.30;85.80;;;;;;5010816;28;20517;-68
2022/08/08 11:51:23;;;;;;;2.43;1.83;;;27.50;85.80;;;;;;5010606;28;20892;-68
2022/08/08 11:53:51;;;;;;;1.70;1.60;;;27.60;87.00;;;;;;5009040;28;20470;-68
2022/08/08 11:56:22;;;;;;;2.07;1.87;;;27.80;88.40;;;;;;5010428;28;20482;-69
2022/08/08 11:58:50;;;;;;;2.43;1.80;;;28.00;84.90;;;;;;5010818;28;20981;-68
2022/08/08 12:01:17;;;;;;;2.23;1.70;;;28.10;84.90;;;;;;5009639;28;20580;-68
2022/08/08 12:03:46;;;;;;;2.30;1.67;;;28.20;85.10;;;;;;5011028;28;20462;-68
2022/08/08 12:06:15;;;;;;;1.70;1.60;;;28.40;84.20;;;;;;5010046;28;20486;-67
2022/08/08 12:08:44;;;;;;;2.37;1.70;;;28.50;86.30;;;;;;5009923;28;20828;-68
2022/08/08 12:11:12;;;;;;;1.77;1.67;;;28.50;84.70;;;;;;5009989;28;20516;-68
2022/08/08 12:13:40;;;;;;;2.10;1.97;;;28.60;85.20;;;;;;5010652;28;20474;-69
2022/08/08 12:16:09;;;;;;;1.70;1.60;;;28.60;84.90;;;;;;5009855;28;20478;-68
2022/08/08 12:18:47;;;;;;;2.47;1.60;;;28.50;84.20;;;;;;5009931;28;20477;-68
2022/08/08 12:21:22;;;;;;;1.90;1.80;;;28.40;82.80;;;;;;5009781;28;20496;-68
2022/08/08 12:24:01;;;;;;;2.40;1.90;;;28.40;83.10;;;;;;5009708;28;20461;-68
2022/08/08 12:26:37;;;;;;;1.73;1.63;;;28.30;84.10;;;;;;5010392;28;21120;-68
2022/08/08 12:29:21;;;;;;;2.93;1.90;;;28.40;82.40;;;;;;5009750;28;20460;-68
2022/08/08 12:32:00;;;;;;;2.10;2.00;;;28.30;83.00;;;;;;5010073;28;20462;-68
2022/08/08 12:34:38;;;;;;;2.03;1.87;;;28.20;84.30;;;;;;5010277;28;20957;-68
2022/08/08 12:37:07;;;;;;;2.03;1.50;;;28.20;81.90;;;;;;5011493;28;20485;-66
2022/08/08 12:39:35;;;;;;;2.67;1.90;;;28.40;82.60;;;;;;5013251;28;21027;-69
2022/08/08 12:42:01;;;;;;;1.70;1.60;;;28.50;82.00;;;;;;5012232;28;20482;-68
2022/08/08 12:44:30;;;;;;;2.00;1.90;;;28.60;76.80;;;;;;5012376;28;20468;-68
2022/08/08 12:46:58;;;;;;;2.00;1.80;;;28.70;81.60;;;;;;5012284;28;20489;-68
2022/08/08 12:49:29;;;;;;;1.73;1.63;;;28.80;79.90;;;;;;5013289;28;20973;-69
2022/08/08 12:51:57;;;;;;;1.60;1.50;;;29.00;81.60;;;;;;5013186;28;20458;-69
2022/08/08 12:54:25;;;;;;;2.43;1.60;;;29.10;78.00;;;;;;5010975;28;21022;-68
2022/08/08 12:56:54;;;;;;;1.60;1.50;;;29.20;80.00;;;;;;5013080;28;21004;-68
2022/08/08 12:59:23;;;;;;;1.60;1.50;;;29.20;80.60;;;;;;5011505;28;20469;-67
2022/08/08 13:01:52;;;;;;;1.60;1.50;;;29.30;78.20;;;;;;5011946;28;20540;-68
2022/08/08 13:04:21;;;;;;;2.13;1.40;;;29.20;77.20;;;;;;5011027;28;20461;-68
2022/08/08 13:06:56;;;;;;;1.70;1.60;;;29.20;78.80;;;;;;5010565;28;20528;-68
2022/08/08 13:09:35;;;;;;;1.70;1.50;;;29.40;79.00;;;;;;5010420;28;20470;-69
2022/08/08 13:12:11;;;;;;;1.40;1.30;;;29.50;79.10;;;;;;5010721;28;20834;-68
2022/08/08 13:14:40;;;;;;;1.53;1.43;;;29.50;77.40;;;;;;5005528;28;20568;-68
2022/08/08 13:17:07;;;;;;;1.67;1.57;;;29.60;77.50;;;;;;5009831;28;20492;-68
2022/08/08 13:19:35;;;;;;;1.60;1.50;;;29.60;78.50;;;;;;5008994;28;21045;-67
2022/08/08 13:22:02;;;;;;;1.40;1.30;;;29.70;76.00;;;;;;5009001;28;20490;-71
2022/08/08 13:24:30;;;;;;;1.80;1.70;;;29.70;79.20;;;;;;5009810;28;20472;-75
2022/08/08 13:27:09;;;;;;;1.70;1.60;;;29.80;78.10;;;;;;5011873;28;20481;-72
2022/08/08 13:29:38;;;;;;;1.53;1.40;;;29.90;76.10;;;;;;5011738;28;20461;-77
2022/08/08 13:32:06;;;;;;;1.63;1.53;;;29.80;76.80;;;;;;5013902;28;20458;-73
2022/08/08 13:34:37;;;;;;;1.80;1.70;;;29.80;76.30;;;;;;5001699;28;21004;-72
2022/08/08 13:37:07;;;;;;;1.60;1.50;;;29.80;76.40;;;;;;5007151;28;20531;-73
2022/08/08 13:39:34;;;;;;;2.60;1.90;;;29.70;76.80;;;;;;5014459;28;20465;-75
2022/08/08 13:42:01;;;;;;;1.97;1.80;;;29.70;78.90;;;;;;5013821;28;20486;-76
2022/08/08 13:44:30;;;;;;;1.83;1.60;;;29.80;75.70;;;;;;5016483;28;20465;-76
2022/08/08 13:46:58;;;;;;;1.83;1.70;;;29.80;78.20;;;;;;5017161;28;20485;-77
2022/08/08 13:49:29;;;;;;;1.80;1.70;;;29.70;76.70;;;;;;5014468;28;20466;-74
2022/08/08 13:51:58;;;;;;;1.67;1.53;;;29.70;76.80;;;;;;5015489;28;20454;-71
2022/08/08 13:54:26;;;;;;;1.40;1.30;;;29.80;77.30;;;;;;5013297;28;20489;-71